createdAt,value
2018-07-19T00:02:15.847Z,6.4
2018-07-19T00:08:10.935Z,5.93
2018-07-19T00:14:05.984Z,5.93
2018-07-19T00:20:00.898Z,6.18
2018-07-19T00:25:55.900Z,6.32
2018-07-19T00:31:50.898Z,5.99
2018-07-19T00:37:45.902Z,6.77
2018-07-19T00:43:40.875Z,6.08
2018-07-19T00:49:35.916Z,6.14
2018-07-19T00:55:30.911Z,6.47
2018-07-19T01:01:25.919Z,6.19
2018-07-19T01:07:20.896Z,6.32
2018-07-19T01:13:15.939Z,6.71
2018-07-19T01:19:10.989Z,5.98
2018-07-19T01:25:05.929Z,6.64
2018-07-19T01:31:00.935Z,6.7
2018-07-19T01:36:55.983Z,5.77
2018-07-19T01:42:50.973Z,6.14
2018-07-19T01:48:45.918Z,5.83
2018-07-19T01:54:40.947Z,6.13
2018-07-19T02:00:35.942Z,6.69
2018-07-19T02:06:30.999Z,5.92
2018-07-19T02:12:26.035Z,6.36
2018-07-19T02:18:20.993Z,6.96
2018-07-19T02:24:15.998Z,6.79
2018-07-19T02:30:11.004Z,6.85
2018-07-19T02:36:06.024Z,6.52
2018-07-19T02:42:01.067Z,6.65
2018-07-19T02:47:55.960Z,7.58
2018-07-19T02:53:51.037Z,6.89
2018-07-19T02:59:46.004Z,7.02
2018-07-19T03:05:41.010Z,8.04
2018-07-19T03:11:35.992Z,7.95
2018-07-19T03:17:31.045Z,7.61
2018-07-19T03:23:25.994Z,7.56
2018-07-19T03:29:21.007Z,7.55
2018-07-19T03:35:16.006Z,7.87
2018-07-19T03:41:11.039Z,7.94
2018-07-19T03:47:06.017Z,7.49
2018-07-19T03:53:01.012Z,7.42
2018-07-19T03:58:56.017Z,7.09
2018-07-19T04:04:51.129Z,7.5
2018-07-19T04:10:46.092Z,7
2018-07-19T04:16:41.042Z,7.35
2018-07-19T04:22:36.039Z,7.76
2018-07-19T04:28:31.065Z,6.9
2018-07-19T04:34:26.063Z,7.88
2018-07-19T04:40:21.096Z,7.44
2018-07-19T04:46:16.060Z,7.52
2018-07-19T04:52:11.099Z,6.93
2018-07-19T04:58:06.071Z,7.37
2018-07-19T05:04:01.092Z,7.55
2018-07-19T05:09:56.112Z,8.45
2018-07-19T05:15:51.108Z,7.86
2018-07-19T05:21:46.090Z,7.55
2018-07-19T05:27:41.145Z,7.28
2018-07-19T05:33:36.173Z,8.65
2018-07-19T05:39:31.115Z,6.69
2018-07-19T05:45:26.157Z,7.13
2018-07-19T05:51:21.128Z,7.71
2018-07-19T05:57:16.131Z,7.89
2018-07-19T06:03:11.100Z,9.06
2018-07-19T06:09:06.131Z,8.33
2018-07-19T06:15:01.120Z,8.22
2018-07-19T06:20:56.149Z,9.07
2018-07-19T06:26:51.134Z,9.26
2018-07-19T06:32:46.204Z,8.93
2018-07-19T06:38:41.161Z,8.04
2018-07-19T06:44:36.167Z,7.7
2018-07-19T06:50:31.202Z,7.5
2018-07-19T06:56:26.160Z,7.44
2018-07-19T07:02:21.158Z,7.86
2018-07-19T07:08:16.272Z,7.83
2018-07-19T07:14:12.562Z,7.42
2018-07-19T07:20:06.181Z,6.86
2018-07-19T07:26:01.197Z,7.86
2018-07-19T07:31:56.361Z,7.18
2018-07-19T07:37:51.191Z,7.77
2018-07-19T07:43:46.192Z,7.48
2018-07-19T07:49:41.247Z,7.1
2018-07-19T07:55:36.227Z,6.93
2018-07-19T08:01:31.299Z,7.59
2018-07-19T08:07:26.326Z,7.79
2018-07-19T08:13:21.226Z,7.96
2018-07-19T08:19:16.250Z,7.54
2018-07-19T08:25:11.240Z,7.95
2018-07-19T08:31:06.309Z,7.11
2018-07-19T08:37:01.232Z,7.62
2018-07-19T08:42:56.239Z,7.67
2018-07-19T08:48:51.304Z,6.73
2018-07-19T08:54:46.250Z,6.86
2018-07-19T09:00:41.316Z,5.82
2018-07-19T09:06:36.273Z,5.75
2018-07-19T09:12:31.259Z,5.77
2018-07-19T09:18:26.304Z,5.06
2018-07-19T09:24:21.298Z,4.62
2018-07-19T09:30:16.285Z,4.75
2018-07-19T09:36:11.334Z,3.9
2018-07-19T09:42:06.395Z,2.86
2018-07-19T09:48:01.329Z,3.11
2018-07-19T09:53:56.300Z,3.72
2018-07-19T09:59:51.338Z,3.44
2018-07-19T10:05:46.398Z,3.6
2018-07-19T10:11:41.310Z,3.47
2018-07-19T10:17:36.311Z,3.83
2018-07-19T10:23:31.391Z,3.74
2018-07-19T10:29:26.334Z,3.86
2018-07-19T10:35:21.399Z,3.48
2018-07-19T10:41:16.432Z,3.51
2018-07-19T10:47:11.433Z,3.13
2018-07-19T10:53:06.352Z,4.67
2018-07-19T10:59:01.362Z,3.67
2018-07-19T11:04:56.415Z,2.26
2018-07-19T11:10:51.382Z,2.8
2018-07-19T11:16:46.403Z,2.44
2018-07-19T11:22:41.418Z,1.8
2018-07-19T11:28:36.402Z,2.22
2018-07-19T11:34:31.422Z,2.38
2018-07-19T11:40:26.417Z,2.32
2018-07-19T11:46:21.464Z,8.14
2018-07-19T11:52:16.414Z,3.1
2018-07-19T11:58:11.519Z,3.35
2018-07-19T12:04:06.413Z,3.22
2018-07-19T12:10:01.493Z,4.82
2018-07-19T12:15:56.426Z,3.42
2018-07-19T12:21:51.481Z,3.16
2018-07-19T12:27:46.486Z,3.38
2018-07-19T12:33:41.456Z,3.36
2018-07-19T12:39:36.478Z,3.53
2018-07-19T12:45:31.493Z,3.23
2018-07-19T12:51:26.479Z,2.85
2018-07-19T12:57:21.514Z,2.93
2018-07-19T13:03:16.488Z,2.64
2018-07-19T13:09:22.768Z,2.85
2018-07-19T13:15:06.606Z,2.55
2018-07-19T13:21:01.486Z,2.2
2018-07-19T13:26:56.519Z,2.19
2018-07-19T13:32:53.543Z,2.23
2018-07-19T13:38:48.697Z,2.25
2018-07-19T13:44:41.528Z,2.34
2018-07-19T13:50:37.200Z,2.67
2018-07-19T13:56:31.552Z,2.06
2018-07-19T14:02:26.573Z,2.1
2018-07-19T14:08:21.528Z,2.08
2018-07-19T14:14:16.718Z,2.03
2018-07-19T14:20:11.689Z,1.8
2018-07-19T14:26:06.554Z,2.13
2018-07-19T14:32:01.785Z,1.91
2018-07-19T14:37:56.693Z,2.13
2018-07-19T14:43:51.668Z,2.2
2018-07-19T14:49:46.594Z,1.71
2018-07-19T14:55:41.594Z,1.9
2018-07-19T15:01:36.594Z,1.86
2018-07-19T15:07:31.618Z,1.91
2018-07-19T15:13:26.635Z,1.75
2018-07-19T15:19:21.616Z,1.85
2018-07-19T15:25:16.600Z,2.06
2018-07-19T15:31:11.623Z,2.2
2018-07-19T15:37:06.611Z,2.14
2018-07-19T15:43:01.647Z,2.12
2018-07-19T15:48:56.635Z,2.29
2018-07-19T15:54:51.645Z,2.08
2018-07-19T16:00:46.661Z,2.34
2018-07-19T16:06:41.669Z,2.29
2018-07-19T16:12:36.627Z,2.52
2018-07-19T16:18:31.649Z,2.42
2018-07-19T16:24:26.693Z,2.4
2018-07-19T16:30:21.656Z,2.45
2018-07-19T16:36:16.667Z,2.45
2018-07-19T16:42:11.720Z,2.58
2018-07-19T16:48:06.704Z,2.83
2018-07-19T16:54:01.761Z,2.56
2018-07-19T16:59:56.838Z,2.77
2018-07-19T17:05:51.704Z,2.6
2018-07-19T17:11:46.757Z,2.69
2018-07-19T17:17:41.703Z,2.9
2018-07-19T17:23:36.720Z,2.88
2018-07-19T17:29:31.759Z,2.95
2018-07-19T17:35:27.468Z,2.61
2018-07-19T17:41:21.711Z,3.1
2018-07-19T17:47:16.764Z,3
2018-07-19T17:53:11.734Z,3.51
2018-07-19T17:59:06.768Z,2.98
2018-07-19T18:05:01.772Z,3.27
2018-07-19T18:10:56.764Z,3.03
2018-07-19T18:16:51.830Z,3.59
2018-07-19T18:22:46.770Z,3.54
2018-07-19T18:28:41.801Z,3.58
2018-07-19T18:34:36.781Z,3.46
2018-07-19T18:40:31.803Z,4.03
2018-07-19T18:46:26.807Z,3.9
2018-07-19T18:52:21.821Z,3.84
2018-07-19T18:58:16.858Z,4.12
2018-07-19T19:04:11.833Z,4.78
2018-07-19T19:10:06.826Z,5.18
2018-07-19T19:16:01.830Z,5
2018-07-19T19:21:56.888Z,5.16
2018-07-19T19:27:51.809Z,4.88
2018-07-19T19:33:46.826Z,4.82
2018-07-19T19:39:41.814Z,5.42
2018-07-19T19:45:36.833Z,4.88
2018-07-19T19:51:31.843Z,5.07
2018-07-19T19:57:26.856Z,4.76
2018-07-19T20:03:21.893Z,5.64
2018-07-19T20:09:16.860Z,5.59
2018-07-19T20:15:11.901Z,5.21
2018-07-19T20:21:06.891Z,5.37
2018-07-19T20:27:01.899Z,5.33
2018-07-19T20:32:56.936Z,5.19
2018-07-19T20:38:51.910Z,6.16
2018-07-19T20:44:46.957Z,5.38
2018-07-19T20:50:41.956Z,5.73
2018-07-19T20:56:36.943Z,5.52
2018-07-19T21:02:31.903Z,5.8
2018-07-19T21:08:26.941Z,6.33
2018-07-19T21:14:26.488Z,6.23
2018-07-19T21:20:16.936Z,6.47
2018-07-19T21:26:12.061Z,6.43
2018-07-19T21:32:06.993Z,6.75
2018-07-19T21:38:01.918Z,6.85
2018-07-19T21:43:56.983Z,7.08
2018-07-19T21:49:52.083Z,7.37
2018-07-19T21:55:46.952Z,7.05
2018-07-19T22:01:41.991Z,7.17
2018-07-19T22:07:36.992Z,6.83
2018-07-19T22:13:31.963Z,7.15
2018-07-19T22:19:26.966Z,7.74
2018-07-19T22:25:21.964Z,7.6
2018-07-19T22:31:16.988Z,7.72
2018-07-19T22:37:11.999Z,8.1
2018-07-19T22:43:06.994Z,8.38
2018-07-19T22:49:02.002Z,8.83
2018-07-19T22:54:56.973Z,8.69
2018-07-19T23:00:52.056Z,8.66
2018-07-19T23:06:47.019Z,7.98
2018-07-19T23:12:42.001Z,8.52
2018-07-19T23:18:36.992Z,8.05
2018-07-19T23:24:32.047Z,8.23
2018-07-19T23:30:27.007Z,7.98
2018-07-19T23:36:22.056Z,8.18
2018-07-19T23:42:17.078Z,8.37
2018-07-19T23:48:12.022Z,8.53
2018-07-19T23:54:07.057Z,8.94
